sensor_id;sensor_type;location;lat;lon;timestamp;temperature;humidity
19665;DHT22;9980;51.020;7.772;2022-12-29T00:00:05;12.00;99.90
19665;DHT22;9980;51.020;7.772;2022-12-29T00:02:38;12.00;99.90
19665;DHT22;9980;51.020;7.772;2022-12-29T00:05:05;12.10;99.90
19665;DHT22;9980;51.020;7.772;2022-12-29T00:07:32;12.10;99.90
19665;DHT22;9980;51.020;7.772;2022-12-29T00:09:58;12.10;99.90
19665;DHT22;9980;51.020;7.772;2022-12-29T00:12:25;12.10;99.90
19665;DHT22;9980;51.020;7.772;2022-12-29T00:15:11;12.10;99.90
19665;DHT22;9980;51.020;7.772;2022-12-29T00:17:57;12.10;99.90
19665;DHT22;9980;51.020;7.772;2022-12-29T00:20:23;12.20;99.90
19665;DHT22;9980;51.020;7.772;2022-12-29T00:23:08;12.20;99.90
19665;DHT22;9980;51.020;7.772;2022-12-29T00:25:53;12.20;99.90
19665;DHT22;9980;51.020;7.772;2022-12-29T00:28:45;12.20;99.90
19665;DHT22;9980;51.020;7.772;2022-12-29T00:31:32;12.20;99.90
19665;DHT22;9980;51.020;7.772;2022-12-29T00:34:17;12.30;99.90
19665;DHT22;9980;51.020;7.772;2022-12-29T00:37:01;12.30;99.90
19665;DHT22;9980;51.020;7.772;2022-12-29T00:39:28;12.30;99.90
19665;DHT22;9980;51.020;7.772;2022-12-29T00:42:12;12.30;99.90
19665;DHT22;9980;51.020;7.772;2022-12-29T00:44:57;12.30;99.90
19665;DHT22;9980;51.020;7.772;2022-12-29T00:47:23;12.30;99.90
19665;DHT22;9980;51.020;7.772;2022-12-29T00:49:49;12.30;99.90
19665;DHT22;9980;51.020;7.772;2022-12-29T00:52:16;12.30;99.90
19665;DHT22;9980;51.020;7.772;2022-12-29T00:54:44;12.30;99.90
19665;DHT22;9980;51.020;7.772;2022-12-29T00:57:11;12.30;99.90
19665;DHT22;9980;51.020;7.772;2022-12-29T00:59:42;12.30;99.90
19665;DHT22;9980;51.020;7.772;2022-12-29T01:02:09;12.30;99.90
19665;DHT22;9980;51.020;7.772;2022-12-29T01:04:36;12.40;99.90
19665;DHT22;9980;51.020;7.772;2022-12-29T01:07:02;12.40;99.90
19665;DHT22;9980;51.020;7.772;2022-12-29T01:09:29;12.40;99.90
19665;DHT22;9980;51.020;7.772;2022-12-29T01:12:13;12.40;99.90
19665;DHT22;9980;51.020;7.772;2022-12-29T01:14:40;12.40;99.90
19665;DHT22;9980;51.020;7.772;2022-12-29T01:17:06;12.40;99.90
19665;DHT22;9980;51.020;7.772;2022-12-29T01:19:33;12.50;99.90
19665;DHT22;9980;51.020;7.772;2022-12-29T01:21:59;12.50;99.90
19665;DHT22;9980;51.020;7.772;2022-12-29T01:24:27;12.50;99.90
19665;DHT22;9980;51.020;7.772;2022-12-29T01:26:53;12.50;99.90
19665;DHT22;9980;51.020;7.772;2022-12-29T01:29:20;12.50;99.90
19665;DHT22;9980;51.020;7.772;2022-12-29T01:31:47;12.50;99.90
19665;DHT22;9980;51.020;7.772;2022-12-29T01:34:15;12.50;99.90
19665;DHT22;9980;51.020;7.772;2022-12-29T01:36:41;12.50;99.90
19665;DHT22;9980;51.020;7.772;2022-12-29T01:39:07;12.50;99.90
19665;DHT22;9980;51.020;7.772;2022-12-29T01:41:34;12.50;99.90
19665;DHT22;9980;51.020;7.772;2022-12-29T01:44:00;12.60;99.90
19665;DHT22;9980;51.020;7.772;2022-12-29T01:46:34;12.50;99.90
19665;DHT22;9980;51.020;7.772;2022-12-29T01:49:23;12.50;99.90
19665;DHT22;9980;51.020;7.772;2022-12-29T01:52:00;12.50;99.90
19665;DHT22;9980;51.020;7.772;2022-12-29T01:54:33;12.50;99.90
19665;DHT22;9980;51.020;7.772;2022-12-29T01:57:17;12.60;99.90
19665;DHT22;9980;51.020;7.772;2022-12-29T01:59:58;12.60;99.90
19665;DHT22;9980;51.020;7.772;2022-12-29T02:02:39;12.60;99.90
19665;DHT22;9980;51.020;7.772;2022-12-29T02:05:25;12.60;99.90
19665;DHT22;9980;51.020;7.772;2022-12-29T02:07:56;12.60;99.90
19665;DHT22;9980;51.020;7.772;2022-12-29T02:10:25;12.60;99.90
19665;DHT22;9980;51.020;7.772;2022-12-29T02:12:55;12.60;99.90
19665;DHT22;9980;51.020;7.772;2022-12-29T02:27:48;12.60;99.90
19665;DHT22;9980;51.020;7.772;2022-12-29T02:34:00;12.60;99.90
19665;DHT22;9980;51.020;7.772;2022-12-29T02:37:02;12.60;99.90
19665;DHT22;9980;51.020;7.772;2022-12-29T02:39:50;12.60;99.90
19665;DHT22;9980;51.020;7.772;2022-12-29T02:42:23;12.60;99.90
19665;DHT22;9980;51.020;7.772;2022-12-29T02:45:13;12.60;99.90
19665;DHT22;9980;51.020;7.772;2022-12-29T02:50:51;12.60;99.90
19665;DHT22;9980;51.020;7.772;2022-12-29T02:53:23;12.60;99.90
19665;DHT22;9980;51.020;7.772;2022-12-29T02:56:27;12.60;99.90
19665;DHT22;9980;51.020;7.772;2022-12-29T02:58:53;12.60;99.90
19665;DHT22;9980;51.020;7.772;2022-12-29T03:04:37;12.60;99.90
19665;DHT22;9980;51.020;7.772;2022-12-29T03:10:02;12.70;99.90
19665;DHT22;9980;51.020;7.772;2022-12-29T03:16:06;12.70;99.90
19665;DHT22;9980;51.020;7.772;2022-12-29T03:19:00;12.70;99.90
19665;DHT22;9980;51.020;7.772;2022-12-29T03:21:42;12.70;99.90
19665;DHT22;9980;51.020;7.772;2022-12-29T03:24:41;12.70;99.90
19665;DHT22;9980;51.020;7.772;2022-12-29T03:27:15;12.70;99.90
19665;DHT22;9980;51.020;7.772;2022-12-29T03:29:48;12.70;99.90
19665;DHT22;9980;51.020;7.772;2022-12-29T03:32:24;12.70;99.90
19665;DHT22;9980;51.020;7.772;2022-12-29T03:34:56;12.70;99.90
19665;DHT22;9980;51.020;7.772;2022-12-29T03:37:30;12.70;99.90
19665;DHT22;9980;51.020;7.772;2022-12-29T03:40:04;12.70;99.90
19665;DHT22;9980;51.020;7.772;2022-12-29T03:42:33;12.70;99.90
19665;DHT22;9980;51.020;7.772;2022-12-29T03:45:04;12.70;99.90
19665;DHT22;9980;51.020;7.772;2022-12-29T03:47:32;12.70;99.90
19665;DHT22;9980;51.020;7.772;2022-12-29T03:49:58;12.70;99.90
19665;DHT22;9980;51.020;7.772;2022-12-29T03:52:24;12.70;99.90
19665;DHT22;9980;51.020;7.772;2022-12-29T03:54:52;12.70;99.90
19665;DHT22;9980;51.020;7.772;2022-12-29T03:57:18;12.70;99.90
19665;DHT22;9980;51.020;7.772;2022-12-29T03:59:57;12.70;99.90
19665;DHT22;9980;51.020;7.772;2022-12-29T04:02:23;12.70;99.90
19665;DHT22;9980;51.020;7.772;2022-12-29T04:04:50;12.70;99.90
19665;DHT22;9980;51.020;7.772;2022-12-29T04:07:16;12.70;99.90
19665;DHT22;9980;51.020;7.772;2022-12-29T04:09:43;12.80;99.90
19665;DHT22;9980;51.020;7.772;2022-12-29T04:12:15;12.70;99.90
19665;DHT22;9980;51.020;7.772;2022-12-29T04:14:42;12.80;99.90
19665;DHT22;9980;51.020;7.772;2022-12-29T04:17:08;12.80;99.90
19665;DHT22;9980;51.020;7.772;2022-12-29T04:19:34;12.80;99.90
19665;DHT22;9980;51.020;7.772;2022-12-29T04:22:01;12.80;99.90
19665;DHT22;9980;51.020;7.772;2022-12-29T04:24:28;12.80;99.90
19665;DHT22;9980;51.020;7.772;2022-12-29T04:26:54;12.80;99.90
19665;DHT22;9980;51.020;7.772;2022-12-29T04:29:46;12.80;99.90
19665;DHT22;9980;51.020;7.772;2022-12-29T04:32:33;12.80;99.90
19665;DHT22;9980;51.020;7.772;2022-12-29T04:35:00;12.80;99.90
19665;DHT22;9980;51.020;7.772;2022-12-29T04:37:26;12.80;99.90
19665;DHT22;9980;51.020;7.772;2022-12-29T04:39:53;12.80;99.90
19665;DHT22;9980;51.020;7.772;2022-12-29T04:42:20;12.80;99.90
19665;DHT22;9980;51.020;7.772;2022-12-29T04:44:46;12.80;99.90
19665;DHT22;9980;51.020;7.772;2022-12-29T04:47:32;12.80;99.90
19665;DHT22;9980;51.020;7.772;2022-12-29T04:50:26;12.80;99.90
19665;DHT22;9980;51.020;7.772;2022-12-29T04:53:00;12.80;99.90
19665;DHT22;9980;51.020;7.772;2022-12-29T04:55:27;12.80;99.90
19665;DHT22;9980;51.020;7.772;2022-12-29T04:57:54;12.80;99.90
19665;DHT22;9980;51.020;7.772;2022-12-29T05:00:21;12.80;99.90
19665;DHT22;9980;51.020;7.772;2022-12-29T05:02:47;12.80;99.90
19665;DHT22;9980;51.020;7.772;2022-12-29T05:05:14;12.80;99.90
19665;DHT22;9980;51.020;7.772;2022-12-29T05:07:43;12.80;99.90
19665;DHT22;9980;51.020;7.772;2022-12-29T05:10:10;12.80;99.90
19665;DHT22;9980;51.020;7.772;2022-12-29T05:12:38;12.80;99.90
19665;DHT22;9980;51.020;7.772;2022-12-29T05:15:05;12.80;99.90
19665;DHT22;9980;51.020;7.772;2022-12-29T05:17:33;12.80;99.90
19665;DHT22;9980;51.020;7.772;2022-12-29T05:19:59;12.80;99.90
19665;DHT22;9980;51.020;7.772;2022-12-29T05:22:26;12.80;99.90
19665;DHT22;9980;51.020;7.772;2022-12-29T05:24:53;12.80;99.90
19665;DHT22;9980;51.020;7.772;2022-12-29T05:27:20;12.80;99.90
19665;DHT22;9980;51.020;7.772;2022-12-29T05:30:08;12.80;99.90
19665;DHT22;9980;51.020;7.772;2022-12-29T05:32:35;12.80;99.90
19665;DHT22;9980;51.020;7.772;2022-12-29T05:35:01;12.80;99.90
19665;DHT22;9980;51.020;7.772;2022-12-29T05:37:28;12.70;99.90
19665;DHT22;9980;51.020;7.772;2022-12-29T05:39:54;12.80;99.90
19665;DHT22;9980;51.020;7.772;2022-12-29T05:42:21;12.80;99.90
19665;DHT22;9980;51.020;7.772;2022-12-29T05:44:51;12.70;99.90
19665;DHT22;9980;51.020;7.772;2022-12-29T05:47:42;12.70;99.90
19665;DHT22;9980;51.020;7.772;2022-12-29T05:50:25;12.80;99.90
19665;DHT22;9980;51.020;7.772;2022-12-29T05:53:07;12.80;99.90
19665;DHT22;9980;51.020;7.772;2022-12-29T05:55:35;12.80;99.90
19665;DHT22;9980;51.020;7.772;2022-12-29T05:58:01;12.70;99.90
19665;DHT22;9980;51.020;7.772;2022-12-29T06:00:27;12.80;99.90
19665;DHT22;9980;51.020;7.772;2022-12-29T06:02:53;12.80;99.90
19665;DHT22;9980;51.020;7.772;2022-12-29T06:05:20;12.80;99.90
19665;DHT22;9980;51.020;7.772;2022-12-29T06:07:46;12.80;99.90
19665;DHT22;9980;51.020;7.772;2022-12-29T06:10:15;12.80;99.90
19665;DHT22;9980;51.020;7.772;2022-12-29T06:13:02;12.80;99.90
19665;DHT22;9980;51.020;7.772;2022-12-29T06:15:31;12.80;99.90
19665;DHT22;9980;51.020;7.772;2022-12-29T06:17:58;12.80;99.90
19665;DHT22;9980;51.020;7.772;2022-12-29T06:20:24;12.80;99.90
19665;DHT22;9980;51.020;7.772;2022-12-29T06:22:51;12.80;99.90
19665;DHT22;9980;51.020;7.772;2022-12-29T06:25:18;12.80;99.90
19665;DHT22;9980;51.020;7.772;2022-12-29T06:27:44;12.80;99.90
19665;DHT22;9980;51.020;7.772;2022-12-29T06:30:11;12.80;99.90
19665;DHT22;9980;51.020;7.772;2022-12-29T06:32:39;12.80;99.90
19665;DHT22;9980;51.020;7.772;2022-12-29T06:35:08;12.80;99.90
19665;DHT22;9980;51.020;7.772;2022-12-29T06:37:39;12.80;99.90
19665;DHT22;9980;51.020;7.772;2022-12-29T06:40:06;12.80;99.90
19665;DHT22;9980;51.020;7.772;2022-12-29T06:42:49;12.80;99.90
19665;DHT22;9980;51.020;7.772;2022-12-29T06:45:32;12.80;99.90
19665;DHT22;9980;51.020;7.772;2022-12-29T06:47:58;12.80;99.90
19665;DHT22;9980;51.020;7.772;2022-12-29T06:50:24;12.80;99.90
19665;DHT22;9980;51.020;7.772;2022-12-29T06:52:50;12.80;99.90
19665;DHT22;9980;51.020;7.772;2022-12-29T06:55:16;12.80;99.90
19665;DHT22;9980;51.020;7.772;2022-12-29T06:57:42;12.80;99.90
19665;DHT22;9980;51.020;7.772;2022-12-29T07:00:09;12.80;99.90
19665;DHT22;9980;51.020;7.772;2022-12-29T07:02:35;12.80;99.90
19665;DHT22;9980;51.020;7.772;2022-12-29T07:05:02;12.80;99.90
19665;DHT22;9980;51.020;7.772;2022-12-29T07:07:28;12.80;99.90
19665;DHT22;9980;51.020;7.772;2022-12-29T07:09:54;12.80;99.90
19665;DHT22;9980;51.020;7.772;2022-12-29T07:12:21;12.80;99.90
19665;DHT22;9980;51.020;7.772;2022-12-29T07:14:47;12.80;99.90
19665;DHT22;9980;51.020;7.772;2022-12-29T07:17:13;12.80;99.90
19665;DHT22;9980;51.020;7.772;2022-12-29T07:19:39;12.70;99.90
19665;DHT22;9980;51.020;7.772;2022-12-29T07:22:05;12.80;99.90
19665;DHT22;9980;51.020;7.772;2022-12-29T07:24:31;12.70;99.90
19665;DHT22;9980;51.020;7.772;2022-12-29T07:26:58;12.70;99.90
19665;DHT22;9980;51.020;7.772;2022-12-29T07:29:24;12.70;99.90
19665;DHT22;9980;51.020;7.772;2022-12-29T07:31:50;12.70;99.90
19665;DHT22;9980;51.020;7.772;2022-12-29T07:34:16;12.70;99.90
19665;DHT22;9980;51.020;7.772;2022-12-29T07:36:43;12.70;99.90
19665;DHT22;9980;51.020;7.772;2022-12-29T07:39:09;12.70;99.90
19665;DHT22;9980;51.020;7.772;2022-12-29T07:41:35;12.70;99.90
19665;DHT22;9980;51.020;7.772;2022-12-29T07:44:02;12.70;99.90
19665;DHT22;9980;51.020;7.772;2022-12-29T07:46:36;12.70;99.90
19665;DHT22;9980;51.020;7.772;2022-12-29T07:49:22;12.70;99.90
19665;DHT22;9980;51.020;7.772;2022-12-29T07:51:48;12.60;99.90
19665;DHT22;9980;51.020;7.772;2022-12-29T07:54:15;12.60;99.90
19665;DHT22;9980;51.020;7.772;2022-12-29T07:56:44;12.60;99.90
19665;DHT22;9980;51.020;7.772;2022-12-29T07:59:11;12.60;99.90
19665;DHT22;9980;51.020;7.772;2022-12-29T08:01:38;12.60;99.90
19665;DHT22;9980;51.020;7.772;2022-12-29T08:04:05;12.60;99.90
19665;DHT22;9980;51.020;7.772;2022-12-29T08:06:31;12.60;99.90
19665;DHT22;9980;51.020;7.772;2022-12-29T08:08:57;12.60;99.90
19665;DHT22;9980;51.020;7.772;2022-12-29T08:11:29;12.60;99.90
19665;DHT22;9980;51.020;7.772;2022-12-29T08:13:55;12.50;99.90
19665;DHT22;9980;51.020;7.772;2022-12-29T08:16:22;12.60;99.90
19665;DHT22;9980;51.020;7.772;2022-12-29T08:18:48;12.50;99.90
19665;DHT22;9980;51.020;7.772;2022-12-29T08:21:14;12.50;99.90
19665;DHT22;9980;51.020;7.772;2022-12-29T08:23:41;12.50;99.90
19665;DHT22;9980;51.020;7.772;2022-12-29T08:26:07;12.50;99.90
19665;DHT22;9980;51.020;7.772;2022-12-29T08:28:33;12.50;99.90
19665;DHT22;9980;51.020;7.772;2022-12-29T08:31:01;12.50;99.90
19665;DHT22;9980;51.020;7.772;2022-12-29T08:33:29;12.50;99.90
19665;DHT22;9980;51.020;7.772;2022-12-29T08:36:03;12.60;99.90
19665;DHT22;9980;51.020;7.772;2022-12-29T08:38:31;12.60;99.90
19665;DHT22;9980;51.020;7.772;2022-12-29T08:40:58;12.60;99.90
19665;DHT22;9980;51.020;7.772;2022-12-29T08:43:27;12.60;99.90
19665;DHT22;9980;51.020;7.772;2022-12-29T08:45:53;12.50;99.90
19665;DHT22;9980;51.020;7.772;2022-12-29T08:48:20;12.60;99.90
19665;DHT22;9980;51.020;7.772;2022-12-29T08:50:48;12.60;99.90
19665;DHT22;9980;51.020;7.772;2022-12-29T08:53:16;12.60;99.90
19665;DHT22;9980;51.020;7.772;2022-12-29T08:55:47;12.50;99.90
19665;DHT22;9980;51.020;7.772;2022-12-29T08:58:27;12.60;99.90
19665;DHT22;9980;51.020;7.772;2022-12-29T09:00:55;12.60;99.90
19665;DHT22;9980;51.020;7.772;2022-12-29T09:03:23;12.60;99.90
19665;DHT22;9980;51.020;7.772;2022-12-29T09:06:10;12.60;99.90
19665;DHT22;9980;51.020;7.772;2022-12-29T09:08:36;12.60;99.90
19665;DHT22;9980;51.020;7.772;2022-12-29T09:11:14;12.60;99.90
19665;DHT22;9980;51.020;7.772;2022-12-29T09:13:43;12.60;99.90
19665;DHT22;9980;51.020;7.772;2022-12-29T09:16:10;12.60;99.90
19665;DHT22;9980;51.020;7.772;2022-12-29T09:18:37;12.60;99.90
19665;DHT22;9980;51.020;7.772;2022-12-29T09:21:05;12.60;99.90
19665;DHT22;9980;51.020;7.772;2022-12-29T09:23:33;12.60;99.90
19665;DHT22;9980;51.020;7.772;2022-12-29T09:26:00;12.60;99.90
19665;DHT22;9980;51.020;7.772;2022-12-29T09:28:26;12.60;99.90
19665;DHT22;9980;51.020;7.772;2022-12-29T09:30:55;12.70;99.90
19665;DHT22;9980;51.020;7.772;2022-12-29T09:33:23;12.60;99.90
19665;DHT22;9980;51.020;7.772;2022-12-29T09:35:55;12.60;99.90
19665;DHT22;9980;51.020;7.772;2022-12-29T09:38:24;12.60;99.90
19665;DHT22;9980;51.020;7.772;2022-12-29T09:40:54;12.60;99.90
19665;DHT22;9980;51.020;7.772;2022-12-29T09:46:28;12.60;99.90
19665;DHT22;9980;51.020;7.772;2022-12-29T09:49:08;12.60;99.90
19665;DHT22;9980;51.020;7.772;2022-12-29T09:51:45;12.60;99.90
19665;DHT22;9980;51.020;7.772;2022-12-29T09:54:30;12.60;99.90
19665;DHT22;9980;51.020;7.772;2022-12-29T09:57:09;12.60;99.90
19665;DHT22;9980;51.020;7.772;2022-12-29T09:59:42;12.60;99.90
19665;DHT22;9980;51.020;7.772;2022-12-29T10:04:48;12.70;99.90
19665;DHT22;9980;51.020;7.772;2022-12-29T10:07:26;12.70;99.90
19665;DHT22;9980;51.020;7.772;2022-12-29T10:13:03;12.70;99.90
19665;DHT22;9980;51.020;7.772;2022-12-29T10:25:20;12.70;99.90
19665;DHT22;9980;51.020;7.772;2022-12-29T10:27:58;12.70;99.90
19665;DHT22;9980;51.020;7.772;2022-12-29T10:30:26;12.70;99.90
19665;DHT22;9980;51.020;7.772;2022-12-29T10:32:58;12.70;99.90
19665;DHT22;9980;51.020;7.772;2022-12-29T10:35:35;12.80;99.90
19665;DHT22;9980;51.020;7.772;2022-12-29T10:38:25;12.80;99.90
19665;DHT22;9980;51.020;7.772;2022-12-29T10:41:01;12.80;99.90
19665;DHT22;9980;51.020;7.772;2022-12-29T10:43:51;12.80;99.90
19665;DHT22;9980;51.020;7.772;2022-12-29T10:46:27;12.80;99.90
19665;DHT22;9980;51.020;7.772;2022-12-29T10:48:56;12.80;99.90
19665;DHT22;9980;51.020;7.772;2022-12-29T10:51:26;12.80;99.90
19665;DHT22;9980;51.020;7.772;2022-12-29T10:54:14;12.80;99.90
19665;DHT22;9980;51.020;7.772;2022-12-29T10:56:47;12.80;99.90
19665;DHT22;9980;51.020;7.772;2022-12-29T10:59:25;12.80;99.90
19665;DHT22;9980;51.020;7.772;2022-12-29T11:04:45;12.70;99.90
19665;DHT22;9980;51.020;7.772;2022-12-29T11:07:21;12.80;99.90
19665;DHT22;9980;51.020;7.772;2022-12-29T11:09:53;12.80;99.90
19665;DHT22;9980;51.020;7.772;2022-12-29T11:14:47;12.70;99.90
19665;DHT22;9980;51.020;7.772;2022-12-29T11:17:25;12.70;99.90
19665;DHT22;9980;51.020;7.772;2022-12-29T11:19:51;12.70;99.90
19665;DHT22;9980;51.020;7.772;2022-12-29T11:22:29;12.70;99.90
19665;DHT22;9980;51.020;7.772;2022-12-29T11:25:06;12.70;99.90
19665;DHT22;9980;51.020;7.772;2022-12-29T11:27:38;12.70;99.90
19665;DHT22;9980;51.020;7.772;2022-12-29T11:30:22;12.70;99.90
19665;DHT22;9980;51.020;7.772;2022-12-29T11:32:54;12.70;99.90
19665;DHT22;9980;51.020;7.772;2022-12-29T11:35:36;12.70;99.90
19665;DHT22;9980;51.020;7.772;2022-12-29T11:38:18;12.70;99.90
19665;DHT22;9980;51.020;7.772;2022-12-29T11:40:49;12.70;99.90
19665;DHT22;9980;51.020;7.772;2022-12-29T11:43:28;12.70;99.90
19665;DHT22;9980;51.020;7.772;2022-12-29T11:46:01;12.70;99.90
19665;DHT22;9980;51.020;7.772;2022-12-29T11:48:39;12.80;99.90
19665;DHT22;9980;51.020;7.772;2022-12-29T11:51:08;12.70;99.90
19665;DHT22;9980;51.020;7.772;2022-12-29T11:53:45;12.70;99.90
19665;DHT22;9980;51.020;7.772;2022-12-29T11:56:17;12.70;99.90
19665;DHT22;9980;51.020;7.772;2022-12-29T11:58:50;12.70;99.90
19665;DHT22;9980;51.020;7.772;2022-12-29T12:01:33;12.70;99.90
19665;DHT22;9980;51.020;7.772;2022-12-29T12:04:17;12.70;99.90
19665;DHT22;9980;51.020;7.772;2022-12-29T12:07:10;12.70;99.90
19665;DHT22;9980;51.020;7.772;2022-12-29T12:09:50;12.70;99.90
19665;DHT22;9980;51.020;7.772;2022-12-29T12:15:51;12.70;99.90
19665;DHT22;9980;51.020;7.772;2022-12-29T12:21:24;12.70;99.90
19665;DHT22;9980;51.020;7.772;2022-12-29T12:27:30;12.70;99.90
19665;DHT22;9980;51.020;7.772;2022-12-29T12:30:16;12.70;99.90
19665;DHT22;9980;51.020;7.772;2022-12-29T12:32:56;12.60;99.90
19665;DHT22;9980;51.020;7.772;2022-12-29T12:39:10;12.60;99.90
19665;DHT22;9980;51.020;7.772;2022-12-29T12:42:03;12.60;99.90
19665;DHT22;9980;51.020;7.772;2022-12-29T12:51:02;12.60;99.90
19665;DHT22;9980;51.020;7.772;2022-12-29T12:56:27;12.60;99.90
19665;DHT22;9980;51.020;7.772;2022-12-29T13:00:32;12.50;99.90
19665;DHT22;9980;51.020;7.772;2022-12-29T13:06:44;12.50;99.90
19665;DHT22;9980;51.020;7.772;2022-12-29T13:09:00;12.50;99.90
19665;DHT22;9980;51.020;7.772;2022-12-29T13:12:04;12.50;99.90
19665;DHT22;9980;51.020;7.772;2022-12-29T13:15:09;12.50;99.90
19665;DHT22;9980;51.020;7.772;2022-12-29T13:18:02;12.40;99.90
19665;DHT22;9980;51.020;7.772;2022-12-29T13:20:53;12.50;99.90
19665;DHT22;9980;51.020;7.772;2022-12-29T13:23:48;12.40;99.90
19665;DHT22;9980;51.020;7.772;2022-12-29T13:29:23;12.40;99.90
19665;DHT22;9980;51.020;7.772;2022-12-29T13:32:17;12.40;99.90
19665;DHT22;9980;51.020;7.772;2022-12-29T13:41:21;12.40;99.90
19665;DHT22;9980;51.020;7.772;2022-12-29T13:43:55;12.40;99.90
19665;DHT22;9980;51.020;7.772;2022-12-29T13:46:29;12.40;99.90
19665;DHT22;9980;51.020;7.772;2022-12-29T13:49:05;12.40;99.90
19665;DHT22;9980;51.020;7.772;2022-12-29T13:51:47;12.40;99.90
19665;DHT22;9980;51.020;7.772;2022-12-29T13:56:52;12.40;99.90
19665;DHT22;9980;51.020;7.772;2022-12-29T13:59:40;12.40;99.90
19665;DHT22;9980;51.020;7.772;2022-12-29T14:05:01;12.40;99.90
19665;DHT22;9980;51.020;7.772;2022-12-29T14:07:36;12.40;99.90
19665;DHT22;9980;51.020;7.772;2022-12-29T14:10:04;12.40;99.90
19665;DHT22;9980;51.020;7.772;2022-12-29T14:12:40;12.40;99.90
19665;DHT22;9980;51.020;7.772;2022-12-29T14:17:42;12.40;99.90
19665;DHT22;9980;51.020;7.772;2022-12-29T14:20:21;12.40;99.90
19665;DHT22;9980;51.020;7.772;2022-12-29T14:23:01;12.40;99.90
19665;DHT22;9980;51.020;7.772;2022-12-29T14:31:52;12.40;99.90
19665;DHT22;9980;51.020;7.772;2022-12-29T14:37:01;12.40;99.90
19665;DHT22;9980;51.020;7.772;2022-12-29T14:39:35;12.40;99.90
19665;DHT22;9980;51.020;7.772;2022-12-29T14:44:52;12.30;99.90
19665;DHT22;9980;51.020;7.772;2022-12-29T14:47:31;12.30;99.90
19665;DHT22;9980;51.020;7.772;2022-12-29T14:57:49;12.30;99.90
19665;DHT22;9980;51.020;7.772;2022-12-29T15:00:35;12.30;99.90
19665;DHT22;9980;51.020;7.772;2022-12-29T15:03:22;12.30;99.90
19665;DHT22;9980;51.020;7.772;2022-12-29T15:05:53;12.30;99.90
19665;DHT22;9980;51.020;7.772;2022-12-29T15:08:26;12.30;99.90
19665;DHT22;9980;51.020;7.772;2022-12-29T15:11:13;12.30;99.90
19665;DHT22;9980;51.020;7.772;2022-12-29T15:13:44;12.20;99.90
19665;DHT22;9980;51.020;7.772;2022-12-29T15:16:24;12.20;99.90
19665;DHT22;9980;51.020;7.772;2022-12-29T15:18:54;12.20;99.90
19665;DHT22;9980;51.020;7.772;2022-12-29T15:21:29;12.20;99.90
19665;DHT22;9980;51.020;7.772;2022-12-29T15:23:57;12.20;99.90
19665;DHT22;9980;51.020;7.772;2022-12-29T15:26:37;12.20;99.90
19665;DHT22;9980;51.020;7.772;2022-12-29T15:29:05;12.10;99.90
19665;DHT22;9980;51.020;7.772;2022-12-29T15:31:51;12.10;99.90
19665;DHT22;9980;51.020;7.772;2022-12-29T15:34:21;12.00;99.90
19665;DHT22;9980;51.020;7.772;2022-12-29T15:36:50;12.00;99.90
19665;DHT22;9980;51.020;7.772;2022-12-29T15:39:30;12.00;99.90
19665;DHT22;9980;51.020;7.772;2022-12-29T15:45:08;11.90;99.90
19665;DHT22;9980;51.020;7.772;2022-12-29T15:47:38;11.90;99.90
19665;DHT22;9980;51.020;7.772;2022-12-29T15:50:14;11.90;99.90
19665;DHT22;9980;51.020;7.772;2022-12-29T15:52:53;11.80;99.90
19665;DHT22;9980;51.020;7.772;2022-12-29T15:55:34;11.80;99.90
19665;DHT22;9980;51.020;7.772;2022-12-29T15:58:05;11.80;99.90
19665;DHT22;9980;51.020;7.772;2022-12-29T16:00:48;11.80;99.90
19665;DHT22;9980;51.020;7.772;2022-12-29T16:03:16;11.80;99.90
19665;DHT22;9980;51.020;7.772;2022-12-29T16:05:53;11.80;99.90
19665;DHT22;9980;51.020;7.772;2022-12-29T16:11:00;11.70;99.90
19665;DHT22;9980;51.020;7.772;2022-12-29T16:13:34;11.70;99.90
19665;DHT22;9980;51.020;7.772;2022-12-29T16:16:19;11.70;99.90
19665;DHT22;9980;51.020;7.772;2022-12-29T16:18:52;11.60;99.90
19665;DHT22;9980;51.020;7.772;2022-12-29T16:21:27;11.60;99.90
19665;DHT22;9980;51.020;7.772;2022-12-29T16:24:02;11.60;99.90
19665;DHT22;9980;51.020;7.772;2022-12-29T16:26:32;11.60;99.90
19665;DHT22;9980;51.020;7.772;2022-12-29T16:29:05;11.50;99.90
19665;DHT22;9980;51.020;7.772;2022-12-29T16:31:55;11.50;99.90
19665;DHT22;9980;51.020;7.772;2022-12-29T16:37:27;11.40;99.90
19665;DHT22;9980;51.020;7.772;2022-12-29T16:39:54;11.30;99.90
19665;DHT22;9980;51.020;7.772;2022-12-29T16:42:45;11.30;99.90
19665;DHT22;9980;51.020;7.772;2022-12-29T16:48:10;11.20;99.90
19665;DHT22;9980;51.020;7.772;2022-12-29T16:50:45;11.20;99.90
19665;DHT22;9980;51.020;7.772;2022-12-29T16:53:24;11.10;99.90
19665;DHT22;9980;51.020;7.772;2022-12-29T16:55:55;11.10;99.90
19665;DHT22;9980;51.020;7.772;2022-12-29T16:58:25;11.10;99.90
19665;DHT22;9980;51.020;7.772;2022-12-29T17:00:56;11.10;99.90
19665;DHT22;9980;51.020;7.772;2022-12-29T17:03:33;11.00;99.90
19665;DHT22;9980;51.020;7.772;2022-12-29T17:06:05;11.00;99.90
19665;DHT22;9980;51.020;7.772;2022-12-29T17:08:41;11.00;99.90
19665;DHT22;9980;51.020;7.772;2022-12-29T17:11:28;11.00;99.90
19665;DHT22;9980;51.020;7.772;2022-12-29T17:14:48;10.90;99.90
19665;DHT22;9980;51.020;7.772;2022-12-29T17:17:34;10.90;99.90
19665;DHT22;9980;51.020;7.772;2022-12-29T17:20:05;10.90;99.90
19665;DHT22;9980;51.020;7.772;2022-12-29T17:22:39;10.90;99.90
19665;DHT22;9980;51.020;7.772;2022-12-29T17:25:06;10.90;99.90
19665;DHT22;9980;51.020;7.772;2022-12-29T17:27:40;10.90;99.90
19665;DHT22;9980;51.020;7.772;2022-12-29T17:30:15;10.90;99.90
19665;DHT22;9980;51.020;7.772;2022-12-29T17:32:51;10.80;99.90
19665;DHT22;9980;51.020;7.772;2022-12-29T17:35:21;10.80;99.90
19665;DHT22;9980;51.020;7.772;2022-12-29T17:37:48;10.80;99.90
19665;DHT22;9980;51.020;7.772;2022-12-29T17:40:26;10.80;99.90
19665;DHT22;9980;51.020;7.772;2022-12-29T17:42:56;10.80;99.90
19665;DHT22;9980;51.020;7.772;2022-12-29T17:45:27;10.80;99.90
19665;DHT22;9980;51.020;7.772;2022-12-29T17:47:54;10.80;99.90
19665;DHT22;9980;51.020;7.772;2022-12-29T17:50:23;10.90;99.90
19665;DHT22;9980;51.020;7.772;2022-12-29T17:52:55;10.80;99.90
19665;DHT22;9980;51.020;7.772;2022-12-29T17:55:32;10.80;99.90
19665;DHT22;9980;51.020;7.772;2022-12-29T17:58:24;10.80;99.90
19665;DHT22;9980;51.020;7.772;2022-12-29T18:00:55;10.80;99.90
19665;DHT22;9980;51.020;7.772;2022-12-29T18:03:29;10.90;99.90
19665;DHT22;9980;51.020;7.772;2022-12-29T18:06:01;10.90;99.90
19665;DHT22;9980;51.020;7.772;2022-12-29T18:08:27;10.90;99.90
19665;DHT22;9980;51.020;7.772;2022-12-29T18:10:54;10.90;99.90
19665;DHT22;9980;51.020;7.772;2022-12-29T18:13:23;10.80;99.90
19665;DHT22;9980;51.020;7.772;2022-12-29T18:15:56;10.80;99.90
19665;DHT22;9980;51.020;7.772;2022-12-29T18:18:25;10.80;99.90
19665;DHT22;9980;51.020;7.772;2022-12-29T18:20:55;10.80;99.90
19665;DHT22;9980;51.020;7.772;2022-12-29T18:23:26;10.80;99.90
19665;DHT22;9980;51.020;7.772;2022-12-29T18:26:03;10.80;99.90
19665;DHT22;9980;51.020;7.772;2022-12-29T18:28:31;10.80;99.90
19665;DHT22;9980;51.020;7.772;2022-12-29T18:30:59;10.80;99.90